Skip navigation

RAMMB: Regional and Mesoscale Meteorology Branch logo CIRA: Cooperative Institute for Research in the Atmosphere logo NESDIS: NOAA Environmental Satellite, Data, and Information Service logo

Announcement: Please visit out new web application, SLIDER, for every pixel of real-time GOES-16 and Himawari-8 imagery.

EP112006 - Major Hurricane JOHN

View model data products for this storm.

New: View wind speed probabilities products for this storm

Forecast Track

Time of Latest Forecast: 200609041200

Forecast Hour Latitude Longitude Intensity
0 28.9 246.8 25
12 29.9 246.2 20
24 30.6 245.5 20
36 0 0 0
48 0 0 0
72 0 0 0
96 0 0 0
120 0 0 0

Forecast Track Archive

About Forecast Track

Track History

Synoptic Time Latitude Longitude Intensity
200609041800 28.9 -113.2 25
200609041200 28.9 -113.2 25
200609040600 28.2 -113 25
200609040000 27.9 -112.9 30
200609031800 27.3 -112.5 40
200609031200 26.8 -112.4 40
200609030600 26 -111.9 45
200609030000 25.3 -111.5 55
200609021800 24.7 -111 65
200609021200 24.3 -110.5 75
200609020600 23.8 -109.9 90
200609020000 23.2 -109.3 95
200609011800 22.4 -108.9 95
200609011200 21.7 -108.7 100
200609010600 21.5 -108.5 100
200609010330 21 -107.4 90
200609010328 21 -107.4 90
200609010322 21 -107.4 90
200609010315 21 -107.4 90
200609010300 21 -107.4 90
200609010245 21 -107.4 90
200609010230 21 -107.4 90
200609010215 21 -107.4 90
200609010200 21 -107.4 90
200609010145 21 -107.4 90
200609010130 21 -107.4 90
200609010115 21 -107.4 90
200609010100 20.2 -106.6 105
200609010045 20.2 -106.6 105
200609010030 20.2 -106.6 105
200609010015 20.2 -106.6 105
200609010000 21 -107.4 90
200608312345 20.2 -106.6 105
200608312330 20.2 -106.6 105
200608312315 20.2 -106.6 105
200608312300 20.2 -106.6 105
200608312257 20.2 -106.6 105
200608312250 20.2 -106.6 105
200608312249 20.2 -106.6 105
200608312247 20.2 -106.6 105
200608312245 20.2 -106.6 105
200608312230 20.2 -106.6 105
200608312215 20.2 -106.6 105
200608312200 20.2 -106.6 105
200608312145 20.2 -106.6 105
200608312130 20.2 -106.6 105
200608312115 20.2 -106.6 105
200608312100 20.2 -106.6 105
200608312045 20.2 -106.6 105
200608312030 20.2 -106.6 105
200608312016 20.2 -106.6 105
200608312000 20.2 -106.6 105
200608311945 20.2 -106.6 105
200608311930 20.2 -106.6 105
200608311915 20.2 -106.6 105
200608311900 20.2 -106.6 105
200608311847 20.2 -106.6 105
200608311845 19 -105.8 110
200608311830 19 -105.8 110
200608311815 19 -105.8 110
200608311800 19 -105.8 110
200608311745 19 -105.8 110
200608311730 19 -105.8 110
200608311715 19 -105.8 110
200608311700 19 -105.8 110
200608311645 19 -105.8 110
200608311630 19 -105.8 110
200608311615 19 -105.8 110
200608311600 19 -105.8 110
200608311545 19 -105.8 110
200608311530 19 -105.8 110
200608311515 19 -105.8 110
200608311500 19 -105.8 110
200608311445 19 -105.8 110
200608311430 19 -105.8 110
200608311415 19 -105.8 110
200608311400 19 -105.8 110
200608311345 19 -105.8 110
200608311330 19 -105.8 110
200608311315 19 -105.8 110
200608311300 19 -105.8 110
200608311245 18.2 -104.9 110
200608311230 18.2 -104.9 110
200608311215 18.2 -104.9 110
200608311200 18.2 -104.9 110
200608311145 18.2 -104.9 110
200608311130 18.2 -104.9 110
200608311115 18.2 -104.9 110
200608311100 18.2 -104.9 110
200608311045 18.2 -104.9 110
200608311030 18.2 -104.9 110
200608311015 18.2 -104.9 110
200608311000 18.2 -104.9 110
200608310945 18.2 -104.9 110
200608310930 18.2 -104.9 110
200608310915 18.2 -104.9 110
200608310900 18.2 -104.9 110
200608310845 18.2 -104.9 110
200608310830 18.2 -104.9 110
200608310815 18.2 -104.9 110
200608310800 17.7 -104.1 110
200608310745 17.7 -104.1 110
200608310730 17.7 -104.1 110
200608310715 17.7 -104.1 110
200608310701 17.7 -104.1 110
200608310645 17.7 -104.1 110
200608310630 17.7 -104.1 110
200608310615 17.7 -104.1 110
200608310600 17.7 -104.1 110
200608310545 17.7 -104.1 110
200608310530 17.7 -104.1 110
200608310515 17.7 -104.1 110
200608310500 17.7 -104.1 110
200608310445 17.7 -104.1 110
200608310430 17.7 -104.1 110
200608310415 17.7 -104.1 110
200608310400 17.7 -104.1 110
200608310345 17.7 -104.1 110
200608310343 17.7 -104.1 110
200608310339 17.7 -104.1 110
200608310336 17.7 -104.1 110
200608310330 17.7 -104.1 110
200608310321 17.7 -104.1 110
200608310319 17.7 -104.1 110
200608310318 17.7 -104.1 110
200608310315 17.7 -104.1 110
200608310300 17.7 -104.1 110
200608310245 17.7 -104.1 110
200608310230 17.7 -104.1 110
200608310216 17.7 -104.1 110
200608310200 17.7 -104.1 110
200608310145 17.7 -104.1 110
200608310130 17.7 -104.1 110
200608310115 17.7 -104.1 110
200608310100 17.7 -104.1 110
200608310045 17 -102.8 115
200608310030 17 -102.8 115
200608310015 17 -102.8 115
200608310000 17 -102.8 115
200608302345 17 -102.8 115
200608302330 17 -102.8 115
200608302315 17 -102.8 115
200608302300 17 -102.8 115
200608302245 17 -102.8 115
200608302230 17 -102.8 115
200608302215 17 -102.8 115
200608302200 17 -102.8 115
200608302145 17 -102.8 115
200608302130 17 -102.8 115
200608302115 17 -102.8 115
200608302100 17 -102.8 115
200608302045 17 -102.8 115
200608302030 17 -102.8 115
200608302015 17 -102.8 115
200608302000 17 -102.8 115
200608301945 17 -102.8 115
200608301930 17 -102.8 115
200608301900 17 -102.8 115
200608301845 16.1 -101.8 115
200608301830 16.1 -101.8 115
200608301815 16.1 -101.8 115
200608301800 16.1 -101.8 115
200608301745 16.1 -101.8 115
200608301730 16.1 -101.8 115
200608301715 16.1 -101.8 115
200608301700 16.1 -101.8 115
200608301645 16.1 -101.8 115
200608301630 16.1 -101.8 115
200608301615 16.1 -101.8 115
200608301600 16.1 -101.8 115
200608301545 16.1 -101.8 115
200608301530 16.1 -101.8 115
200608301515 16.1 -101.8 115
200608301500 16.1 -101.8 115
200608301445 16.1 -101.8 115
200608301430 16.1 -101.8 115
200608301415 16.1 -101.8 115
200608301400 16.1 -101.8 115
200608301345 16.1 -101.8 115
200608301330 16.1 -101.8 110
200608301315 16.1 -101.8 110
200608301300 16.1 -101.8 110
200608301245 15.3 -100.7 100
200608301230 15.3 -100.7 100
200608301215 15.3 -100.7 100
200608301200 15.3 -100.7 100
200608301145 15.3 -100.7 100
200608301130 15.3 -100.7 100
200608301115 15.3 -100.7 100
200608301100 15.3 -100.7 100
200608301045 15.3 -100.7 100
200608301030 15.3 -100.7 100
200608301015 15.3 -100.7 100
200608301000 15.3 -100.7 100
200608300945 15.3 -100.7 100
200608300930 15.3 -100.7 100
200608300915 15.3 -100.7 100
200608300900 15.3 -100.7 100
200608300845 15.3 -100.7 100
200608300830 15.3 -100.7 100
200608300815 15.3 -100.7 100
200608300800 15.3 -100.7 100
200608300745 15.3 -100.7 100
200608300730 15.3 -100.7 100
200608300715 15.3 -100.7 100
200608300700 15.3 -100.7 100
200608300645 15.3 -100.7 100
200608300630 14.9 -100 100
200608300615 14.9 -100 100
200608300600 14.9 -100 100
200608300545 14.9 -100 100
200608300530 14.9 -100 100
200608300515 14.9 -100 100
200608300500 14.9 -100 100
200608300445 14.9 -100 100
200608300430 14.9 -100 100
200608300415 14.9 -100 100
200608300400 14.9 -100 100
200608300345 14.9 -100 100
200608300330 14.9 -100 100
200608300315 14.9 -100 100
200608300300 14.9 -100 100
200608300245 14.9 -100 100
200608300230 14.9 -100 100
200608300215 14.9 -100 100
200608300200 14.9 -100 100
200608300145 14.9 -100 100
200608300130 14.9 -100 100
200608300115 14.9 -100 100
200608300100 14.9 -100 100
200608300045 14.2 -99.3 90
200608300030 14.2 -99.3 90
200608300015 14.2 -99.3 90
200608300000 14.2 -99.3 90
200608292345 14.2 -99.3 90
200608292330 14.2 -99.3 90
200608292315 14.2 -99.3 90
200608292300 14.2 -99.3 90
200608292245 14.2 -99.3 90
200608292230 14.2 -99.3 90
200608292215 14.2 -99.3 90
200608292200 14.2 -99.3 90
200608292145 14.2 -99.3 90
200608292130 14.2 -99.3 90
200608292115 14.2 -99.3 90
200608292100 14.2 -99.3 90
200608292045 14.2 -99.3 90
200608292030 14.2 -99.3 90
200608292015 14.2 -99.3 90
200608292000 14.2 -99.3 90
200608291945 14.2 -99.3 90
200608291930 14.2 -99.3 90
200608291915 14.2 -99.3 90
200608291900 14.2 -99.3 90
200608291845 14.1 -98.5 70
200608291830 14.1 -98.5 70
200608291815 14.1 -98.5 70
200608291800 14.1 -98.5 70
200608291745 14.1 -98.5 70
200608291730 14.1 -98.5 70
200608291715 14.1 -98.5 70
200608291700 14.1 -98.5 70
200608291645 14.1 -98.5 70
200608291630 14.1 -98.5 70
200608291615 14.1 -98.5 70
200608291600 14.1 -98.5 70
200608291545 14.1 -98.5 70
200608291530 14.1 -98.5 70
200608291515 14.1 -98.5 70
200608291500 14.1 -98.5 70
200608291445 14.1 -98.5 70
200608291430 14.1 -98.5 70
200608291415 14.1 -98.5 70
200608291400 14.1 -98.5 70
200608291345 14.1 -98.5 70
200608291330 14.1 -98.5 70
200608291315 14.1 -98.5 70
200608291300 14.1 -98.5 70
200608291245 13.8 -97.5 60
200608291230 13.8 -97.5 60
200608291215 13.8 -97.5 60
200608291200 13.8 -97.5 60
200608291145 13.8 -97.5 60
200608291130 13.8 -97.5 60
200608291115 13.8 -97.5 60
200608291100 13.8 -97.5 60
200608291045 13.8 -97.5 60
200608291030 13.8 -97.5 60
200608291015 13.8 -97.5 60
200608291000 13.8 -97.5 60
200608290945 13.8 -97.5 60
200608290930 13.8 -97.5 60
200608290915 13.8 -97.5 60
200608290900 13.8 -97.5 60
200608290845 13.8 -97.5 60
200608290830 13.8 -97.5 60
200608290815 13.8 -97.5 60
200608290800 13.8 -97.5 60
200608290745 13.8 -97.5 60
200608290730 13.8 -97.5 60
200608290715 13.8 -97.5 60
200608290700 13.8 -97 50
200608290645 13.8 -97 50
200608290630 13.8 -97 50
200608290615 13.8 -97 50
200608290600 13.8 -97 50
200608290545 13.8 -97 50
200608290530 13.8 -97 50
200608290515 13.8 -97 50
200608290500 13.8 -97 50
200608290445 13.8 -97 50
200608290430 13.8 -97 50
200608290415 13.8 -97 50
200608290400 13.8 -97 50
200608290345 13.8 -97 50
200608290330 13.8 -97 50
200608290315 13.8 -97 50
200608290300 13.8 -97 50
200608290245 13.8 -97 50
200608290230 13.8 -97 50
200608290215 13.8 -97 50
200608290200 13.8 -97 50
200608290145 13.8 -97 50
200608290130 13.8 -97 50
200608290115 13.8 -97 50
200608290100 13.8 -97 50
200608290045 13.2 -96.3 35
200608290030 13.2 -96.3 35
200608290015 13.2 -96.3 35
200608290000 13.2 -96.3 35
200608282345 13.2 -96.3 35
200608282330 13.2 -96.3 35
200608282315 13.2 -96.3 35
200608282300 13.2 -96.3 35
200608282245 13.2 -96.3 35
200608282230 13.2 -96.3 35
200608282215 13.2 -96.3 35
200608282200 13.2 -96.3 35
200608282145 13.2 -96.3 35
200608282130 13.2 -96.3 35
200608282115 13.2 -96.3 35
200608282100 13.2 -96.3 35
200608282045 13.2 -96.3 35
200608282030 13.2 -96.3 35
200608282015 13.2 -96.3 35
200608282000 13.2 -96.3 35
200608281945 13.2 -96.3 35
200608281930 13.2 -96.3 35
200608281915 13.2 -96.3 35
200608281900 13.1 -95.7 30
200608281845 13.1 -95.7 30
200608281830 13.1 -95.7 30
200608281815 13.1 -95.7 30
200608281800 13.1 -95.7 30
200608281745 13.1 -95.7 30
200608281730 13.1 -95.7 30
200608281715 13.1 -95.7 30
200608281700 13.1 -95.7 30
200608281645 13.1 -95.7 30
200608281630 13.1 -95.7 30
200608281615 13.1 -95.7 30
200608281600 13.1 -95.7 30
200608281545 13.1 -95.7 30
200608281530 13.1 -95.7 30
200608281515 13.1 -95.7 30
200608281315 12.5 -94.6 25
200608281145 12.5 -94.6 25
200608281130 12.5 -94.6 25
200608281115 12.5 -94.6 25
200608281100 12.5 -94.6 25
200608281045 12.5 -94.6 25
200608281030 12.5 -94.6 25
200608281015 12.5 -94.6 25
200608281000 12.5 -94.6 25
200608280945 12.5 -94.6 25
200608280930 12.5 -94.6 25
200608280915 12.5 -94.6 25
200608280900 12.5 -94.6 25
200608280845 12.5 -94.6 25
200608280830 12.5 -94.6 25
200608280815 12.5 -94.6 25
200608280800 12.5 -94.6 25
200608280745 12.5 -94.6 25
200608280730 12.5 -94.6 25
200608280715 12.5 -94.6 25
200608280700 12.5 -94.6 25
200608280645 12.5 -94.6 25
200608280630 12.5 -94.6 25
200608280615 12.5 -94.6 25
200608280600 12.5 -94.6 25
200608280545 12.5 -94.6 25
200608280530 12.5 -94.6 25
200608280515 12.5 -94.6 25
200608280500 12.5 -94.6 25
200608280445 12.5 -94.6 25
200608280430 12.5 -94.6 25
200608280415 12.5 -94.6 25
200608280400 12.5 -94.6 25
200608280346 12.5 -94.6 25
200608280330 12.5 -94.6 25
200608280315 12.5 -94.6 25
200608280300 12.5 -94.6 25
200608280245 12.5 -94.6 25
200608280230 12.5 -94.6 25
200608280215 12.5 -94.6 25

About Track History

Enhanced Infrared (IR) Imagery (4 km Mercator)

Loop | Latest Image | Archive | About

Time of This Image: 200608310045

AMSU Microwave 89 GHz Imagery (4 km Mercator)

No Data Available

IR/WV/Microwave RGB (IR [R], WV [G], MI89 [B])

No Data Available

Storm Relative 1 km Geostationary Visible Imagery

No Data Available

2 km Storm Relative IR Imagery with BD Enhancement Curve

No Data Available

Enhanced Infrared (IR) Imagery (1 km Mercator, MODIS/AVHRR)

No Data Available

Day/Night Visible Imagery VIIRS

No Data Available

Day/Night DNB Imagery VIIRS

No Data Available

Enhanced Infrared (IR) VIIRS

No Data Available

Visible Imagery (1 km Mercator, MODIS/AVHRR)

No Data Available

2km Natural Color Imagery

No Data Available

Storm Relative 16 km Geostationary Water Vapor Imagery

No Data Available

Storm Relative 16 km Microwave-Based Total Precipitable Water Imagery

No Data Available

Multiplatform Satellite Surface Wind Analysis (Experimental)

No Data Available

Aircraft-based Tropical Cyclone Surface Wind Analysis

No Data Available

Ocean Heat Content & Forecast Track

No Data Available

Multiplatform Tropical Cyclone Kinetic Energy and Intensity

No Data Available

Multiplatform Tropical Cyclone MSLP and Maximum Winds

No Data Available

Digital Dvorak

No Data Available

AMSU Intensity Time Series

No Data Available

Collocation of AMSU and Dropsonde Soundings

No Data Available

Collocation of ATMS and Dropsonde Soundings

No Data Available

ATMS Maximum Potential Intensity

No Data Available

IR-based TC size

No Data Available

Time Series of the Simplified Holland B parameter calculated from the TC Vitals

No Data Available

Satellite-Based 34-kt Wind Radii Estimates

No Data Available

Satellite-Based 50-kt Wind Radii Estimates

No Data Available

Satellite-Based 64-kt Wind Radii Estimates

No Data Available

Dvorak Fix-Based Wind Radii (Text; ATCF ANAL fixes)

No Data Available

Eye Probability Forecast

No Data Available

AMSU Radial/Height Cross Sections

No Data Available

AMSU Area-Averaged Wind Shears and Layer Means

No Data Available